Time;durP1;ratioP1;P1;durP2;ratioP2;P2;SDS_P1;SDS_P2;PMS_P1;PMS_P2;Temp;Humidity;BMP_temperature;BMP_pressure;BME280_temperature;BME280_humidity;BME280_pressure;Samples;Min_cycle;Max_cycle;Signal;HPM_P1;HPM_P2
2024/02/22 00:01:36;;;;;;;18.37;13.13;;;;;;;-0.99;100.00;100960.69;5034366;28;20260;-66
2024/02/22 00:04:02;;;;;;;18.50;13.23;;;;;;;-1.18;100.00;100910.34;5034293;28;20037;-67
2024/02/22 00:06:27;;;;;;;19.33;11.73;;;;;;;-0.83;100.00;100959.84;5033262;28;20037;-69
2024/02/22 00:08:53;;;;;;;20.97;12.53;;;;;;;-1.00;100.00;100929.41;5034159;28;20034;-68
2024/02/22 00:11:19;;;;;;;21.77;12.60;;;;;;;-0.83;100.00;100952.84;5034372;28;20037;-70
2024/02/22 00:13:45;;;;;;;20.30;13.20;;;;;;;-1.20;100.00;100886.06;5033114;28;20041;-69
2024/02/22 00:16:14;;;;;;;20.50;15.00;;;;;;;-0.82;100.00;100949.31;5033939;28;20033;-68
2024/02/22 00:18:43;;;;;;;;;;;;;;;-0.79;100.00;100946.50;5034567;28;20271;-69
2024/02/22 00:21:08;;;;;;;21.90;12.82;;;;;;;-0.81;100.00;100953.59;5032494;28;20027;-66
2024/02/22 00:23:34;;;;;;;19.80;12.53;;;;;;;-0.88;100.00;100943.53;5033650;28;20117;-67
2024/02/22 00:26:00;;;;;;;22.17;13.40;;;;;;;-1.06;100.00;100914.06;5032303;28;20057;-67
2024/02/22 00:28:26;;;;;;;20.43;12.27;;;;;;;-0.88;100.00;100933.09;5034105;28;20045;-68
2024/02/22 00:30:51;;;;;;;22.03;14.33;;;;;;;-0.82;100.00;100944.06;5033667;28;20048;-68
2024/02/22 00:33:17;;;;;;;17.93;12.30;;;;;;;-0.84;100.00;100932.03;5033853;28;20046;-68
2024/02/22 00:35:42;;;;;;;19.07;13.73;;;;;;;-0.81;100.00;100944.91;5034008;28;20172;-67
2024/02/22 00:38:08;;;;;;;20.50;11.80;;;;;;;-0.89;100.00;100936.63;5033730;28;20448;-67
2024/02/22 00:40:34;;;;;;;19.23;13.67;;;;;;;-0.96;100.00;100931.75;5033672;28;20037;-68
2024/02/22 00:43:00;;;;;;;19.03;12.03;;;;;;;-0.94;100.00;100922.06;5033792;28;20045;-68
2024/02/22 00:45:25;;;;;;;26.30;15.37;;;;;;;-0.84;100.00;100926.78;5033808;28;20041;-66
2024/02/22 00:47:51;;;;;;;20.90;12.70;;;;;;;-0.79;100.00;100937.84;5033637;28;20033;-69
2024/02/22 00:50:16;;;;;;;21.90;11.53;;;;;;;-1.00;100.00;100925.00;5033318;28;20037;-68
2024/02/22 00:52:42;;;;;;;18.90;13.50;;;;;;;-0.92;100.00;100924.59;5033147;28;20474;-69
2024/02/22 00:55:08;;;;;;;18.73;12.47;;;;;;;-1.04;100.00;100899.13;5032380;28;20044;-66
2024/02/22 00:57:33;;;;;;;21.80;13.40;;;;;;;-0.86;100.00;100928.66;5033667;28;20133;-68
2024/02/22 00:59:59;;;;;;;19.93;13.37;;;;;;;-1.03;100.00;100899.03;5032628;28;20060;-66
2024/02/22 01:02:27;;;;;;;17.70;12.20;;;;;;;-1.15;100.00;100888.44;5033252;28;20033;-67
2024/02/22 01:04:53;;;;;;;19.67;12.60;;;;;;;-1.00;100.00;100908.50;5033188;28;20037;-66
2024/02/22 01:07:21;;;;;;;21.47;13.13;;;;;;;-1.11;100.00;100900.41;5033112;28;20379;-67
2024/02/22 01:09:47;;;;;;;22.50;13.20;;;;;;;-1.03;100.00;100898.19;5033376;28;20029;-68
2024/02/22 01:12:13;;;;;;;18.30;12.80;;;;;;;-0.98;100.00;100912.69;5033583;28;20322;-67
2024/02/22 01:14:39;;;;;;;21.87;12.90;;;;;;;-1.21;100.00;100883.53;5031761;28;20276;-67
2024/02/22 01:17:04;;;;;;;19.47;12.37;;;;;;;-1.03;100.00;100917.34;5032935;28;20125;-67
2024/02/22 01:19:30;;;;;;;21.70;13.17;;;;;;;-1.08;100.00;100903.69;5033275;28;20405;-67
2024/02/22 01:21:56;;;;;;;20.07;14.20;;;;;;;-1.03;100.00;100903.44;5031816;28;20486;-68
2024/02/22 01:24:23;;;;;;;18.30;12.67;;;;;;;-1.18;100.00;100868.53;5032728;28;20563;-69
2024/02/22 01:26:49;;;;;;;22.00;13.57;;;;;;;-0.90;100.00;100914.03;5033143;28;20315;-66
2024/02/22 01:29:15;;;;;;;21.33;12.80;;;;;;;-1.27;100.00;100850.75;5032719;28;20791;-67
2024/02/22 01:31:40;;;;;;;22.63;12.90;;;;;;;-1.00;100.00;100887.56;5033019;28;20356;-68
2024/02/22 01:34:06;;;;;;;20.23;11.83;;;;;;;-0.93;100.00;100894.13;5032696;28;20124;-67
2024/02/22 01:36:31;;;;;;;17.47;12.30;;;;;;;-0.93;100.00;100891.53;5032734;28;20124;-68
2024/02/22 01:38:57;;;;;;;20.47;12.47;;;;;;;-0.95;100.00;100865.47;5032842;28;20408;-66
2024/02/22 01:41:22;;;;;;;23.03;12.77;;;;;;;-0.87;100.00;100878.09;5031727;28;20037;-67
2024/02/22 01:43:48;;;;;;;20.27;12.77;;;;;;;-0.81;100.00;100898.69;5033006;28;20128;-69
2024/02/22 01:46:15;;;;;;;17.80;11.93;;;;;;;-0.80;100.00;100883.84;5032777;28;20531;-70
2024/02/22 01:48:41;;;;;;;19.87;12.97;;;;;;;-0.97;100.00;100862.09;5034320;28;20457;-67
2024/02/22 01:51:07;;;;;;;16.50;11.83;;;;;;;-0.93;100.00;100863.59;5038223;28;20295;-68
2024/02/22 01:53:34;;;;;;;22.40;13.23;;;;;;;-0.96;100.00;100862.94;5037828;28;20485;-67
2024/02/22 01:56:01;;;;;;;18.13;12.63;;;;;;;-0.90;100.00;100877.44;5034594;28;20280;-68
2024/02/22 01:58:34;;;;;;;19.17;12.00;;;;;;;-1.01;100.00;100860.59;5032461;28;20747;-67
2024/02/22 02:01:02;;;;;;;19.87;12.00;;;;;;;-0.98;100.00;100870.03;5031710;28;20608;-68
2024/02/22 02:03:28;;;;;;;16.90;11.60;;;;;;;-0.90;100.00;100869.59;5032295;28;20350;-69
2024/02/22 02:05:55;;;;;;;17.23;11.90;;;;;;;-0.84;100.00;100870.09;5031862;28;20264;-69
2024/02/22 02:08:21;;;;;;;18.87;13.27;;;;;;;-1.23;100.00;100805.22;5032152;28;20295;-69
2024/02/22 02:10:47;;;;;;;21.43;13.67;;;;;;;-1.61;100.00;100750.75;5032215;28;20346;-67
2024/02/22 02:13:13;;;;;;;18.80;13.03;;;;;;;-0.98;100.00;100851.72;5032365;28;20465;-67
2024/02/22 02:15:39;;;;;;;18.00;12.47;;;;;;;-0.93;100.00;100868.84;5031945;28;20306;-69
2024/02/22 02:18:05;;;;;;;19.57;12.20;;;;;;;-1.11;100.00;100848.97;5031661;28;20361;-68
2024/02/22 02:20:55;;;;;;;20.33;11.80;;;;;;;-1.22;100.00;100829.59;5031705;28;20036;-67
2024/02/22 02:23:42;;;;;;;20.23;11.97;;;;;;;-1.02;100.00;100853.69;5031872;28;20076;-66
2024/02/22 02:26:08;;;;;;;18.40;12.20;;;;;;;-1.04;100.00;100839.00;5030403;28;20330;-67
2024/02/22 02:28:37;;;;;;;17.53;11.23;;;;;;;-1.03;100.00;100857.22;5032340;28;20366;-65
2024/02/22 02:31:03;;;;;;;21.40;12.50;;;;;;;-1.19;100.00;100835.47;5030781;28;20352;-67
2024/02/22 02:33:28;;;;;;;18.13;12.27;;;;;;;-1.22;100.00;100819.97;5032077;28;20038;-68
2024/02/22 02:35:54;;;;;;;18.43;12.43;;;;;;;-1.01;100.00;100863.19;5031805;28;20256;-68
2024/02/22 02:38:19;;;;;;;20.30;12.30;;;;;;;-1.06;100.00;100840.88;5031705;28;20029;-71
2024/02/22 02:40:45;;;;;;;17.07;11.40;;;;;;;-1.02;100.00;100831.94;5031586;28;20083;-68
2024/02/22 02:43:10;;;;;;;17.83;11.83;;;;;;;-0.85;100.00;100863.19;5031470;28;20061;-66
2024/02/22 02:45:36;;;;;;;19.33;12.53;;;;;;;-0.88;100.00;100860.72;5030423;28;20501;-70
2024/02/22 02:48:02;;;;;;;18.93;11.57;;;;;;;-0.90;100.00;100848.66;5031734;28;20116;-67
2024/02/22 02:50:28;;;;;;;20.90;12.13;;;;;;;-1.35;100.00;100772.81;5031711;28;20570;-69
2024/02/22 02:52:53;;;;;;;17.07;11.57;;;;;;;-0.88;100.00;100844.19;5031417;28;20037;-70
2024/02/22 02:55:20;;;;;;;17.90;12.37;;;;;;;-1.01;100.00;100839.69;5032783;28;20047;-68
2024/02/22 02:57:46;;;;;;;18.20;12.87;;;;;;;-1.14;100.00;100817.78;5034285;28;20105;-69
2024/02/22 03:00:14;;;;;;;21.27;15.23;;;;;;;-1.01;100.00;100834.44;5032725;28;20334;-69
2024/02/22 03:02:40;;;;;;;16.80;11.77;;;;;;;-0.88;100.00;100845.03;5033496;28;20117;-67
2024/02/22 03:05:07;;;;;;;16.97;11.50;;;;;;;-0.78;100.00;100853.22;5032754;28;20060;-68
2024/02/22 03:07:34;;;;;;;21.50;14.00;;;;;;;-0.95;100.00;100818.41;5033022;28;20272;-68
2024/02/22 03:09:59;;;;;;;19.40;12.33;;;;;;;-0.80;100.00;100839.41;5033974;28;20299;-69
2024/02/22 03:12:25;;;;;;;23.10;12.53;;;;;;;-0.80;100.00;100836.78;5031570;28;20767;-68
2024/02/22 03:14:51;;;;;;;19.57;12.30;;;;;;;-0.77;100.00;100836.59;5031594;28;20041;-70
2024/02/22 03:17:17;;;;;;;18.67;11.47;;;;;;;-0.82;100.00;100839.47;5031629;28;20135;-69
2024/02/22 03:19:43;;;;;;;17.00;11.43;;;;;;;-1.02;100.00;100811.00;5033324;28;20110;-71
2024/02/22 03:22:09;;;;;;;18.60;12.07;;;;;;;-1.08;100.00;100788.69;5032735;28;20295;-67
2024/02/22 03:24:36;;;;;;;18.27;12.70;;;;;;;-0.97;100.00;100809.81;5035544;28;20771;-69
2024/02/22 03:27:10;;;;;;;17.33;12.87;;;;;;;-0.95;100.00;100812.34;5018097;28;20056;-67
2024/02/22 03:29:39;;;;;;;19.03;14.17;;;;;;;-0.90;100.00;100830.38;5036001;28;20644;-70
2024/02/22 03:32:05;;;;;;;18.23;12.23;;;;;;;-0.91;100.00;100824.31;5035433;28;20334;-67
2024/02/22 03:34:36;;;;;;;16.73;12.73;;;;;;;-0.87;100.00;100831.03;5037623;28;20493;-68
2024/02/22 03:37:02;;;;;;;17.83;11.63;;;;;;;-0.84;100.00;100832.66;5036594;28;20271;-67
2024/02/22 03:39:28;;;;;;;19.37;13.60;;;;;;;-0.82;100.00;100828.19;5035134;28;20359;-67
2024/02/22 03:41:53;;;;;;;16.93;11.27;;;;;;;-0.74;100.00;100832.03;5035266;28;20029;-68
2024/02/22 03:44:19;;;;;;;16.23;12.00;;;;;;;-0.72;100.00;100824.09;5035486;28;20037;-68
2024/02/22 03:46:46;;;;;;;21.43;11.23;;;;;;;-0.87;100.00;100790.97;5034052;28;20488;-67
2024/02/22 03:49:12;;;;;;;19.20;12.63;;;;;;;-0.73;100.00;100817.19;5034139;28;20039;-66
2024/02/22 03:51:38;;;;;;;21.80;12.70;;;;;;;-0.82;100.00;100796.81;5033685;28;20378;-66
2024/02/22 03:54:04;;;;;;;20.40;12.97;;;;;;;-0.88;100.00;100789.28;5033468;28;20092;-69
2024/02/22 03:56:30;;;;;;;22.63;12.77;;;;;;;-0.78;100.00;100819.22;5034816;28;20120;-68
2024/02/22 03:58:56;;;;;;;20.47;13.30;;;;;;;-0.86;100.00;100801.38;5034738;28;20449;-69
2024/02/22 04:01:21;;;;;;;17.60;12.40;;;;;;;-0.67;100.00;100827.28;5034882;28;20347;-66
2024/02/22 04:03:47;;;;;;;16.40;11.63;;;;;;;-0.73;100.00;100819.78;5035385;28;20038;-67
2024/02/22 04:06:12;;;;;;;19.63;12.90;;;;;;;-0.84;100.00;100809.13;5033251;28;20091;-67
2024/02/22 04:08:38;;;;;;;19.50;12.67;;;;;;;-1.00;100.00;100783.84;5034477;28;20076;-68
2024/02/22 04:11:03;;;;;;;26.47;12.83;;;;;;;-1.54;100.00;100683.34;5036499;28;20037;-67
2024/02/22 04:13:29;;;;;;;21.53;13.53;;;;;;;-0.82;100.00;100786.34;5034706;28;20037;-67
2024/02/22 04:15:55;;;;;;;19.37;13.53;;;;;;;-0.91;100.00;100782.47;5035234;28;20059;-66
2024/02/22 04:18:20;;;;;;;16.13;12.50;;;;;;;-0.81;100.00;100814.19;5035120;28;20493;-66
2024/02/22 04:20:46;;;;;;;17.70;12.17;;;;;;;-1.08;100.00;100759.94;5035901;28;20060;-67
2024/02/22 04:23:11;;;;;;;19.27;11.77;;;;;;;-0.80;100.00;100801.00;5034297;28;20034;-66
2024/02/22 04:25:40;;;;;;;20.60;13.37;;;;;;;-0.91;100.00;100786.84;5034836;28;20501;-69
2024/02/22 04:28:10;;;;;;;19.23;13.15;;;;;;;-1.27;100.00;100725.34;5034393;28;20133;-70
2024/02/22 04:30:36;;;;;;;21.27;13.10;;;;;;;-0.78;100.00;100787.84;5034278;28;20327;-69
2024/02/22 04:33:03;;;;;;;19.33;12.20;;;;;;;-0.69;100.00;100800.38;5033434;28;20307;-68
2024/02/22 04:35:29;;;;;;;20.00;13.43;;;;;;;-0.62;100.00;100804.31;5033383;28;20056;-71
2024/02/22 04:37:54;;;;;;;19.00;13.43;;;;;;;-0.81;100.00;100781.03;5034143;28;20725;-71
2024/02/22 04:40:20;;;;;;;19.93;12.77;;;;;;;-0.81;100.00;100782.81;5034596;28;20047;-68
2024/02/22 04:42:46;;;;;;;21.33;13.27;;;;;;;-0.82;100.00;100787.19;5033801;28;20033;-69
2024/02/22 04:45:12;;;;;;;20.13;12.53;;;;;;;-0.69;100.00;100798.59;5032681;28;20333;-69
2024/02/22 04:47:37;;;;;;;22.03;13.40;;;;;;;-0.75;100.00;100782.44;5033627;28;20044;-67
2024/02/22 04:50:04;;;;;;;19.07;13.03;;;;;;;-0.64;100.00;100816.63;5033586;28;20038;-68
2024/02/22 04:52:29;;;;;;;21.23;12.73;;;;;;;-0.66;100.00;100815.88;5033465;28;20590;-70
2024/02/22 04:54:55;;;;;;;17.77;12.10;;;;;;;-0.78;100.00;100793.91;5033774;28;20276;-73
2024/02/22 04:57:22;;;;;;;20.00;12.40;;;;;;;-0.81;100.00;100798.50;5033941;28;20029;-69
2024/02/22 04:59:48;;;;;;;21.43;12.30;;;;;;;-0.76;100.00;100801.66;5020147;28;20030;-71
2024/02/22 05:02:14;;;;;;;19.67;13.00;;;;;;;-0.81;100.00;100798.50;5040882;28;20263;-73
2024/02/22 05:04:40;;;;;;;22.30;12.97;;;;;;;-1.37;100.00;100705.91;5037979;28;20096;-71
2024/02/22 05:07:05;;;;;;;19.63;13.57;;;;;;;-0.97;100.00;100785.44;5037215;28;20693;-69
2024/02/22 05:09:31;;;;;;;21.13;12.97;;;;;;;-0.78;100.00;100800.91;5020300;28;20033;-67
2024/02/22 05:11:56;;;;;;;23.20;13.33;;;;;;;-0.74;100.00;100795.41;5037577;28;20038;-70
2024/02/22 05:14:22;;;;;;;22.47;16.27;;;;;;;-0.79;100.00;100775.69;5034274;28;20037;-69
2024/02/22 05:16:47;;;;;;;19.50;13.50;;;;;;;-0.63;100.00;100805.25;5033030;28;20257;-70
2024/02/22 05:19:13;;;;;;;18.93;13.47;;;;;;;-0.79;100.00;100791.41;5030733;28;20026;-67
2024/02/22 05:21:38;;;;;;;22.20;14.43;;;;;;;-0.74;100.00;100799.81;5032638;28;20107;-67
2024/02/22 05:24:04;;;;;;;20.63;14.53;;;;;;;-0.87;100.00;100780.50;5033365;28;20037;-68
2024/02/22 05:26:30;;;;;;;20.47;14.47;;;;;;;-0.72;100.00;100792.72;5032895;28;20425;-66
2024/02/22 05:28:55;;;;;;;22.27;13.60;;;;;;;-0.71;100.00;100784.78;5034357;28;20041;-68
2024/02/22 05:31:28;;;;;;;19.10;12.97;;;;;;;-0.63;100.00;100789.53;5034133;28;20190;-68
2024/02/22 05:33:54;;;;;;;22.63;13.83;;;;;;;-0.81;100.00;100754.03;5034271;28;20048;-68
2024/02/22 05:36:21;;;;;;;24.60;15.47;;;;;;;-0.74;100.00;100768.44;5033398;28;20636;-70
2024/02/22 05:38:47;;;;;;;20.93;14.33;;;;;;;-0.65;100.00;100780.94;5033952;28;20742;-69
2024/02/22 05:41:16;;;;;;;26.30;15.13;;;;;;;-0.57;100.00;100791.81;5033633;28;20330;-67
2024/02/22 05:43:42;;;;;;;;;;;;;;;-0.41;100.00;100796.97;5034440;28;20620;-67
2024/02/22 05:46:07;;;;;;;22.90;13.53;;;;;;;-0.54;100.00;100775.09;5034840;28;19917;-67
2024/02/22 05:48:33;;;;;;;22.77;16.07;;;;;;;-0.54;100.00;100765.47;5034739;28;20041;-70
2024/02/22 05:50:59;;;;;;;23.03;13.67;;;;;;;-0.40;100.00;100796.03;5035218;28;20087;-70
2024/02/22 05:53:25;;;;;;;24.10;15.53;;;;;;;-0.37;100.00;100781.00;5032633;28;20484;-70
2024/02/22 05:55:50;;;;;;;18.40;14.10;;;;;;;-0.46;100.00;100767.63;5033826;28;20037;-68
2024/02/22 05:58:17;;;;;;;23.17;14.43;;;;;;;-0.41;100.00;100766.41;5031639;28;20034;-69
2024/02/22 06:00:43;;;;;;;19.10;12.57;;;;;;;-0.34;100.00;100775.56;5043630;28;20528;-65
2024/02/22 06:03:09;;;;;;;20.53;13.77;;;;;;;-0.41;100.00;100769.03;5034032;28;20323;-67
2024/02/22 06:05:37;;;;;;;21.00;14.23;;;;;;;-0.38;100.00;100768.00;5031969;28;20817;-68
2024/02/22 06:08:04;;;;;;;24.27;13.93;;;;;;;-0.42;100.00;100764.72;5032793;28;20272;-69
2024/02/22 06:10:29;;;;;;;21.37;13.07;;;;;;;-0.32;100.00;100771.06;5032119;28;20802;-66
2024/02/22 06:12:55;;;;;;;20.23;12.50;;;;;;;-0.26;100.00;100779.53;5030543;28;20296;-68
2024/02/22 06:15:21;;;;;;;24.17;14.03;;;;;;;-0.25;100.00;100789.91;5030492;28;20034;-67
2024/02/22 06:17:47;;;;;;;17.13;12.90;;;;;;;-0.60;100.00;100723.13;5032157;28;20038;-70
2024/02/22 06:20:13;;;;;;;20.83;13.67;;;;;;;-0.38;100.00;100763.59;5031602;28;20331;-68
2024/02/22 06:22:39;;;;;;;19.37;12.93;;;;;;;-0.28;100.00;100792.69;5033078;28;20374;-68
2024/02/22 06:25:12;;;;;;;20.73;13.70;;;;;;;-0.35;100.00;100792.19;5032954;28;20081;-71
2024/02/22 06:27:41;;;;;;;19.63;14.07;;;;;;;-0.38;100.00;100778.47;5032418;28;20284;-67
2024/02/22 06:30:07;;;;;;;21.17;13.85;;;;;;;-0.39;100.00;100769.78;5031338;28;20267;-70
2024/02/22 06:32:34;;;;;;;17.23;13.17;;;;;;;-0.36;100.00;100769.59;5031231;28;20108;-70
2024/02/22 06:35:01;;;;;;;18.83;13.47;;;;;;;-0.33;100.00;100776.41;5028991;28;20414;-72
2024/02/22 06:37:27;;;;;;;15.80;13.63;;;;;;;-0.33;100.00;100785.09;5039136;28;20276;-70
2024/02/22 06:39:53;;;;;;;20.63;13.50;;;;;;;-0.33;100.00;100779.88;5032083;28;20319;-68
2024/02/22 06:42:19;;;;;;;20.67;14.17;;;;;;;-0.09;100.00;100801.09;5031035;28;20525;-73
2024/02/22 06:44:45;;;;;;;24.30;13.03;;;;;;;-0.14;100.00;100776.13;5030357;28;20264;-71
2024/02/22 06:47:11;;;;;;;22.80;13.97;;;;;;;-0.18;100.00;100772.03;5028956;28;20041;-71
2024/02/22 06:49:38;;;;;;;20.07;13.77;;;;;;;-0.08;100.00;100781.84;5029622;28;20763;-70
2024/02/22 06:52:04;;;;;;;21.37;15.07;;;;;;;0.11;100.00;100804.28;5028819;28;20276;-71
2024/02/22 06:54:30;;;;;;;29.17;17.40;;;;;;;-0.11;100.00;100752.38;5030835;28;20794;-70
2024/02/22 06:56:57;;;;;;;20.87;14.67;;;;;;;-0.10;100.00;100761.94;5031101;28;20272;-70
2024/02/22 06:59:23;;;;;;;18.27;12.83;;;;;;;0.03;100.00;100781.19;5029693;28;20037;-72
2024/02/22 07:01:49;;;;;;;22.63;15.03;;;;;;;0.17;100.00;100799.50;5031958;28;20344;-72
2024/02/22 07:04:15;;;;;;;25.80;16.13;;;;;;;0.15;100.00;100797.91;5031760;28;20033;-70
2024/02/22 07:06:41;;;;;;;24.40;14.80;;;;;;;0.17;100.00;100796.88;5031062;28;20034;-70
2024/02/22 07:09:06;;;;;;;24.73;15.73;;;;;;;0.15;100.00;100785.66;5031367;28;20352;-71
2024/02/22 07:11:32;;;;;;;22.73;14.80;;;;;;;0.18;100.00;100790.69;5031025;28;20400;-71
2024/02/22 07:13:58;;;;;;;25.37;14.90;;;;;;;0.19;100.00;100774.06;5029050;28;20104;-71
2024/02/22 07:16:25;;;;;;;23.17;15.33;;;;;;;0.36;100.00;100799.19;5029150;28;20124;-72
2024/02/22 07:18:51;;;;;;;23.70;14.90;;;;;;;0.25;100.00;100764.97;5029315;28;20296;-72
2024/02/22 07:21:16;;;;;;;20.53;13.10;;;;;;;0.28;100.00;100764.75;5026571;28;20303;-73
2024/02/22 07:23:42;;;;;;;24.47;14.80;;;;;;;0.27;100.00;100776.19;5029191;28;20057;-73
2024/02/22 07:26:34;;;;;;;19.17;12.90;;;;;;;0.46;100.00;100815.16;5030373;28;20564;-71
2024/02/22 07:28:59;;;;;;;23.37;13.40;;;;;;;0.33;100.00;100794.16;5028197;28;20303;-70
2024/02/22 07:31:25;;;;;;;19.10;12.53;;;;;;;0.44;100.00;100804.78;5030071;28;20256;-73
2024/02/22 07:33:53;;;;;;;20.90;15.13;;;;;;;0.07;100.00;100743.41;5029260;28;20037;-72
2024/02/22 07:36:18;;;;;;;23.40;14.90;;;;;;;0.28;100.00;100776.09;5029484;28;20429;-74
2024/02/22 07:38:46;;;;;;;23.67;13.80;;;;;;;0.21;100.00;100748.59;5046203;28;20272;-73
2024/02/22 07:41:15;;;;;;;22.90;13.97;;;;;;;0.33;100.00;100785.47;5030544;28;20161;-71
2024/02/22 07:43:46;;;;;;;23.17;14.60;;;;;;;0.43;100.00;100810.97;5030159;28;20290;-74
2024/02/22 07:46:13;;;;;;;22.17;14.87;;;;;;;0.40;100.00;100802.47;5031091;28;20268;-72
2024/02/22 07:48:42;;;;;;;21.40;14.63;;;;;;;0.36;100.00;100793.13;5030796;28;20272;-74
2024/02/22 07:51:08;;;;;;;;;;;;;;;0.60;100.00;100807.28;5031532;28;20471;-72
2024/02/22 07:53:35;;;;;;;26.50;15.33;;;;;;;0.63;100.00;100806.25;5028814;28;19917;-72
2024/02/22 07:56:06;;;;;;;19.37;13.47;;;;;;;0.69;100.00;100796.22;5028355;28;20287;-71
2024/02/22 07:58:44;;;;;;;20.50;13.63;;;;;;;0.67;100.00;100803.34;5029076;28;20276;-71
2024/02/22 08:01:10;;;;;;;26.45;14.27;;;;;;;0.61;100.00;100793.25;5029658;28;20768;-71
2024/02/22 08:03:35;;;;;;;23.47;14.40;;;;;;;0.58;100.00;100815.25;5030182;28;20131;-74
2024/02/22 08:06:01;;;;;;;20.37;14.90;;;;;;;0.32;100.00;100796.88;5029238;28;20038;-75
2024/02/22 08:08:27;;;;;;;21.03;13.47;;;;;;;0.20;100.00;100778.34;5029699;28;20037;-71
2024/02/22 08:10:56;;;;;;;26.60;15.30;;;;;;;0.42;100.00;100811.06;5034870;28;20119;-72
2024/02/22 08:13:25;;;;;;;20.70;13.93;;;;;;;0.30;100.00;100783.88;5035705;28;20284;-71
2024/02/22 08:15:50;;;;;;;23.80;15.57;;;;;;;0.09;100.00;100744.16;5034274;28;20030;-71
2024/02/22 08:18:16;;;;;;;20.33;14.90;;;;;;;0.52;100.00;100810.38;5034221;28;20767;-76
2024/02/22 08:20:42;;;;;;;24.87;14.77;;;;;;;0.33;100.00;100767.97;5059077;28;20035;-75
2024/02/22 08:23:08;;;;;;;132.07;70.97;;;;;;;0.41;100.00;100768.31;5034647;28;20037;-75
2024/02/22 08:25:37;;;;;;;31.10;19.77;;;;;;;0.80;100.00;100812.06;5033788;28;20783;-73
2024/02/22 08:28:04;;;;;;;23.48;13.45;;;;;;;0.69;100.00;100784.88;5043848;28;20068;-70
2024/02/22 08:30:30;;;;;;;25.77;17.10;;;;;;;0.93;100.00;100809.53;5044021;28;20033;-75
2024/02/22 08:32:58;;;;;;;24.40;14.97;;;;;;;0.63;100.00;100752.06;5034441;28;20327;-75
2024/02/22 08:35:26;;;;;;;29.87;16.20;;;;;;;0.95;100.00;100780.56;5036204;28;20268;-70
2024/02/22 08:37:52;;;;;;;28.43;15.60;;;;;;;1.16;100.00;100803.63;5031513;28;20264;-73
2024/02/22 08:40:18;;;;;;;27.83;15.70;;;;;;;1.09;100.00;100794.44;5017988;28;20059;-71
2024/02/22 08:42:45;;;;;;;21.03;15.80;;;;;;;1.13;100.00;100802.94;5034972;28;20041;-71
2024/02/22 08:45:14;;;;;;;27.40;16.03;;;;;;;1.10;100.00;100804.00;5033116;28;20284;-75
2024/02/22 08:47:44;;;;;;;28.17;17.20;;;;;;;1.04;100.00;100812.28;5032708;28;20731;-72
2024/02/22 08:50:12;;;;;;;22.27;14.87;;;;;;;0.96;100.00;100790.13;5032601;28;20029;-71
2024/02/22 08:52:42;;;;;;;22.85;15.63;;;;;;;0.97;100.00;100797.03;5048253;28;20292;-71
2024/02/22 08:55:11;;;;;;;34.57;19.23;;;;;;;1.00;100.00;100795.06;5032179;28;20527;-76
2024/02/22 08:57:37;;;;;;;29.80;15.60;;;;;;;0.95;100.00;100783.19;5029604;28;20740;-73
2024/02/22 09:00:05;;;;;;;23.30;15.37;;;;;;;0.97;100.00;100804.91;5032193;28;20291;-72
2024/02/22 09:02:32;;;;;;;26.25;15.95;;;;;;;0.97;100.00;100815.41;5014445;28;20256;-71
2024/02/22 09:04:58;;;;;;;23.40;14.70;;;;;;;0.82;100.00;100781.34;5034028;28;20045;-72
2024/02/22 09:07:24;;;;;;;24.43;14.70;;;;;;;0.92;100.00;100803.44;5034165;28;20269;-70
2024/02/22 09:09:51;;;;;;;28.80;17.13;;;;;;;0.90;100.00;100797.44;5032682;28;20264;-71
2024/02/22 09:12:17;;;;;;;28.73;18.57;;;;;;;0.96;100.00;100798.00;5033603;28;20322;-74
2024/02/22 09:14:43;;;;;;;30.00;18.50;;;;;;;0.88;100.00;100801.13;5032689;28;20264;-71
2024/02/22 09:17:09;;;;;;;31.30;16.83;;;;;;;0.85;100.00;100791.63;5031398;28;20303;-70
2024/02/22 09:19:35;;;;;;;27.33;17.37;;;;;;;0.92;100.00;100810.47;5033705;28;20113;-72
2024/02/22 09:22:02;;;;;;;22.43;15.00;;;;;;;0.83;100.00;100798.75;5030956;28;20033;-72
2024/02/22 09:24:29;;;;;;;22.43;14.83;;;;;;;0.71;100.00;100773.34;5032860;28;20041;-73
2024/02/22 09:26:59;;;;;;;23.27;14.23;;;;;;;0.95;100.00;100791.06;5036681;28;20295;-69
2024/02/22 09:29:26;;;;;;;22.97;14.33;;;;;;;1.05;100.00;100792.97;5034104;28;20320;-71
2024/02/22 09:31:56;;;;;;;28.63;15.80;;;;;;;1.22;100.00;100802.34;5033453;28;20825;-72
2024/02/22 09:34:23;;;;;;;25.83;15.70;;;;;;;0.89;100.00;100756.44;5033201;28;20296;-74
2024/02/22 09:36:49;;;;;;;22.40;14.27;;;;;;;0.68;100.00;100718.50;5037169;28;20303;-73
2024/02/22 09:39:20;;;;;;;22.07;14.87;;;;;;;1.05;100.00;100789.50;5035631;28;20406;-73
2024/02/22 09:41:50;;;;;;;23.47;15.07;;;;;;;0.87;100.00;100763.56;5035451;28;20280;-71
2024/02/22 09:44:16;;;;;;;20.80;14.00;;;;;;;1.09;100.00;100804.94;5033216;28;20350;-70
2024/02/22 09:46:53;;;;;;;23.23;14.20;;;;;;;1.01;100.00;100769.66;5033614;28;20268;-72
2024/02/22 09:49:25;;;;;;;23.10;15.20;;;;;;;0.81;100.00;100735.09;5034622;28;20268;-73
2024/02/22 09:51:51;;;;;;;21.90;14.23;;;;;;;1.10;100.00;100784.78;5033637;28;20272;-73
2024/02/22 09:54:19;;;;;;;21.40;13.67;;;;;;;1.14;100.00;100791.50;5032902;28;20323;-74
2024/02/22 09:56:45;;;;;;;25.87;14.70;;;;;;;1.31;100.00;100796.50;5031808;28;20322;-69
2024/02/22 09:59:18;;;;;;;23.93;14.43;;;;;;;1.27;100.00;100778.44;5031545;28;20284;-78
2024/02/22 10:01:56;;;;;;;21.77;14.43;;;;;;;1.44;100.00;100784.22;5029249;28;20276;-77
2024/02/22 10:04:25;;;;;;;21.70;14.75;;;;;;;1.51;100.00;100780.25;5032117;28;20272;-75
2024/02/22 10:06:59;;;;;;;;;;;;;;;1.65;100.00;100796.84;5031017;28;20041;-71
2024/02/22 10:09:24;;;;;;;24.47;13.93;;;;;;;1.58;100.00;100785.06;5031201;28;19921;-70
2024/02/22 10:11:50;;;;;;;27.77;16.57;;;;;;;1.59;100.00;100776.25;5032283;28;20295;-71
2024/02/22 10:14:16;;;;;;;23.17;12.77;;;;;;;1.69;100.00;100799.13;5031617;28;20452;-70
2024/02/22 10:16:45;;;;;;;22.20;13.50;;;;;;;1.61;100.00;100798.00;5025967;28;20117;-72
2024/02/22 10:19:15;;;;;;;22.43;13.90;;;;;;;1.50;100.00;100778.56;5029958;28;20072;-71
2024/02/22 10:21:41;;;;;;;24.63;14.80;;;;;;;1.59;100.00;100778.88;5031265;28;20264;-74
2024/02/22 10:24:10;;;;;;;19.13;12.67;;;;;;;1.64;100.00;100789.91;5030601;28;20260;-74
2024/02/22 10:26:35;;;;;;;23.27;13.38;;;;;;;1.63;100.00;100772.47;5032288;28;20287;-71
2024/02/22 10:29:08;;;;;;;19.47;12.33;;;;;;;1.80;100.00;100795.78;5031823;28;20561;-73
2024/02/22 10:31:40;;;;;;;18.47;11.93;;;;;;;1.90;100.00;100807.34;5033528;28;20120;-71
2024/02/22 10:34:06;;;;;;;22.37;13.17;;;;;;;1.75;100.00;100790.88;5031019;28;20692;-70
2024/02/22 10:36:34;;;;;;;21.73;12.30;;;;;;;1.65;100.00;100770.59;5029911;28;20326;-71
2024/02/22 10:39:01;;;;;;;18.73;12.40;;;;;;;1.71;100.00;100770.16;5014086;28;20048;-71
2024/02/22 10:41:27;;;;;;;18.97;12.63;;;;;;;1.87;100.00;100786.53;5033689;28;20308;-71
2024/02/22 10:43:55;;;;;;;20.37;12.33;;;;;;;1.87;100.00;100776.03;5030276;28;20719;-71
2024/02/22 10:46:26;;;;;;;21.23;13.37;;;;;;;1.99;100.00;100788.31;5061011;28;20409;-72
2024/02/22 10:48:51;;;;;;;22.83;13.67;;;;;;;1.32;100.00;100701.09;5030153;28;20268;-69
2024/02/22 10:51:22;;;;;;;19.47;13.50;;;;;;;1.78;100.00;100776.69;5046740;28;20264;-73
2024/02/22 10:53:53;;;;;;;19.03;11.87;;;;;;;1.82;100.00;100776.38;5034511;28;20037;-71
2024/02/22 10:56:25;;;;;;;18.10;12.97;;;;;;;1.68;100.00;100752.81;5030838;28;20284;-72
2024/02/22 10:59:06;;;;;;;18.60;12.93;;;;;;;1.60;100.00;100762.19;5033882;28;20272;-70
2024/02/22 11:01:33;;;;;;;22.27;12.60;;;;;;;1.74;100.00;100791.81;5032756;28;20275;-69
2024/02/22 11:04:01;;;;;;;19.87;12.27;;;;;;;1.59;100.00;100773.63;5032031;28;20743;-69